Terminal Aerodrome Forecast
Issued by NWS Topeka, KS

Home | Current Version | Previous Version | Graphics & Text | Print | Product List | Glossary On
Versions: 1 2 3 4 5 6 7 8 9 10 11 12 13 14 15 16 17 18 19
000
FTUS43 KTOP 241500 AAB
TAFTOP
TAF AMD
KTOP 241504Z 2415/2512 23010KT P6SM VCSH SCT010 OVC030
     FM241600 33012G20KT 3SM TS FEW010 BKN025CB
     FM242000 34014G23KT P6SM FEW040 BKN100
     FM250100 28004KT P6SM SKC=

USA.gov is the U.S. government's official web portal to all federal, state and local government web resources and services.